sensor_id;sensor_type;location;lat;lon;timestamp;P1;durP1;ratioP1;P2;durP2;ratioP2
67997;SDS011;54773;53.388;-1.504;2023-06-24T00:00:04;3.67;;;1.70;;
67997;SDS011;54773;53.388;-1.504;2023-06-24T00:02:50;3.85;;;1.80;;
67997;SDS011;54773;53.388;-1.504;2023-06-24T00:05:37;4.50;;;1.95;;
67997;SDS011;54773;53.388;-1.504;2023-06-24T00:08:22;4.03;;;1.60;;
67997;SDS011;54773;53.388;-1.504;2023-06-24T00:11:07;4.50;;;1.83;;
67997;SDS011;54773;53.388;-1.504;2023-06-24T00:13:51;3.88;;;1.67;;
67997;SDS011;54773;53.388;-1.504;2023-06-24T00:16:34;4.93;;;2.00;;
67997;SDS011;54773;53.388;-1.504;2023-06-24T00:19:20;4.05;;;1.85;;
67997;SDS011;54773;53.388;-1.504;2023-06-24T00:22:08;4.05;;;2.00;;
67997;SDS011;54773;53.388;-1.504;2023-06-24T00:24:52;3.50;;;1.60;;
67997;SDS011;54773;53.388;-1.504;2023-06-24T00:27:36;5.88;;;2.30;;
67997;SDS011;54773;53.388;-1.504;2023-06-24T00:30:21;4.05;;;1.77;;
67997;SDS011;54773;53.388;-1.504;2023-06-24T00:33:06;4.43;;;1.90;;
67997;SDS011;54773;53.388;-1.504;2023-06-24T00:35:54;3.40;;;1.40;;
67997;SDS011;54773;53.388;-1.504;2023-06-24T00:38:40;4.15;;;1.33;;
67997;SDS011;54773;53.388;-1.504;2023-06-24T00:41:27;4.05;;;1.55;;
67997;SDS011;54773;53.388;-1.504;2023-06-24T00:44:11;4.15;;;1.40;;
67997;SDS011;54773;53.388;-1.504;2023-06-24T00:46:56;5.07;;;1.42;;
67997;SDS011;54773;53.388;-1.504;2023-06-24T00:49:40;4.00;;;1.60;;
67997;SDS011;54773;53.388;-1.504;2023-06-24T00:52:24;3.10;;;1.45;;
67997;SDS011;54773;53.388;-1.504;2023-06-24T00:55:10;3.80;;;1.52;;
67997;SDS011;54773;53.388;-1.504;2023-06-24T00:57:56;4.03;;;1.73;;
67997;SDS011;54773;53.388;-1.504;2023-06-24T01:00:43;3.53;;;1.58;;
67997;SDS011;54773;53.388;-1.504;2023-06-24T01:03:29;6.43;;;1.70;;
67997;SDS011;54773;53.388;-1.504;2023-06-24T01:06:13;4.20;;;1.73;;
67997;SDS011;54773;53.388;-1.504;2023-06-24T01:08:58;4.10;;;1.90;;
67997;SDS011;54773;53.388;-1.504;2023-06-24T01:11:43;4.82;;;1.83;;
67997;SDS011;54773;53.388;-1.504;2023-06-24T01:14:27;4.82;;;1.90;;
67997;SDS011;54773;53.388;-1.504;2023-06-24T01:17:12;3.53;;;1.58;;
67997;SDS011;54773;53.388;-1.504;2023-06-24T01:29:53;3.53;;;1.73;;
67997;SDS011;54773;53.388;-1.504;2023-06-24T01:33:02;3.90;;;1.58;;
67997;SDS011;54773;53.388;-1.504;2023-06-24T01:35:52;4.07;;;1.75;;
67997;SDS011;54773;53.388;-1.504;2023-06-24T01:38:40;3.38;;;1.70;;
67997;SDS011;54773;53.388;-1.504;2023-06-24T01:41:31;4.68;;;1.70;;
67997;SDS011;54773;53.388;-1.504;2023-06-24T01:44:17;4.90;;;1.65;;
67997;SDS011;54773;53.388;-1.504;2023-06-24T01:47:02;5.22;;;1.63;;
67997;SDS011;54773;53.388;-1.504;2023-06-24T01:49:48;3.17;;;1.60;;
67997;SDS011;54773;53.388;-1.504;2023-06-24T01:52:33;4.57;;;1.73;;
67997;SDS011;54773;53.388;-1.504;2023-06-24T01:55:23;5.03;;;2.25;;
67997;SDS011;54773;53.388;-1.504;2023-06-24T01:58:07;6.05;;;1.98;;
67997;SDS011;54773;53.388;-1.504;2023-06-24T02:00:52;3.58;;;1.70;;
67997;SDS011;54773;53.388;-1.504;2023-06-24T02:03:38;4.13;;;1.90;;
67997;SDS011;54773;53.388;-1.504;2023-06-24T02:06:24;4.07;;;1.80;;
67997;SDS011;54773;53.388;-1.504;2023-06-24T02:09:09;3.35;;;1.73;;
67997;SDS011;54773;53.388;-1.504;2023-06-24T02:11:54;3.28;;;1.60;;
67997;SDS011;54773;53.388;-1.504;2023-06-24T02:14:40;4.07;;;2.15;;
67997;SDS011;54773;53.388;-1.504;2023-06-24T02:17:25;5.72;;;2.15;;
67997;SDS011;54773;53.388;-1.504;2023-06-24T02:20:13;4.30;;;1.80;;
67997;SDS011;54773;53.388;-1.504;2023-06-24T02:22:58;4.43;;;1.90;;
67997;SDS011;54773;53.388;-1.504;2023-06-24T02:25:43;4.57;;;1.90;;
67997;SDS011;54773;53.388;-1.504;2023-06-24T02:28:28;3.80;;;1.60;;
67997;SDS011;54773;53.388;-1.504;2023-06-24T02:31:13;4.70;;;2.00;;
67997;SDS011;54773;53.388;-1.504;2023-06-24T02:33:58;6.13;;;2.10;;
67997;SDS011;54773;53.388;-1.504;2023-06-24T02:36:42;4.65;;;2.15;;
67997;SDS011;54773;53.388;-1.504;2023-06-24T02:39:29;4.53;;;2.03;;
67997;SDS011;54773;53.388;-1.504;2023-06-24T02:42:14;4.93;;;1.90;;
67997;SDS011;54773;53.388;-1.504;2023-06-24T02:44:58;4.93;;;2.20;;
67997;SDS011;54773;53.388;-1.504;2023-06-24T02:47:43;4.55;;;2.00;;
67997;SDS011;54773;53.388;-1.504;2023-06-24T02:50:28;3.88;;;1.92;;
67997;SDS011;54773;53.388;-1.504;2023-06-24T02:53:13;4.72;;;2.30;;
67997;SDS011;54773;53.388;-1.504;2023-06-24T02:55:58;6.90;;;1.98;;
67997;SDS011;54773;53.388;-1.504;2023-06-24T02:58:42;5.55;;;2.00;;
67997;SDS011;54773;53.388;-1.504;2023-06-24T03:04:14;4.88;;;1.98;;
67997;SDS011;54773;53.388;-1.504;2023-06-24T03:07:04;5.30;;;2.13;;
67997;SDS011;54773;53.388;-1.504;2023-06-24T03:09:48;4.63;;;2.40;;
67997;SDS011;54773;53.388;-1.504;2023-06-24T03:12:32;3.97;;;2.10;;
67997;SDS011;54773;53.388;-1.504;2023-06-24T03:15:16;4.88;;;1.95;;
67997;SDS011;54773;53.388;-1.504;2023-06-24T03:18:01;4.13;;;2.03;;
67997;SDS011;54773;53.388;-1.504;2023-06-24T03:20:45;4.88;;;2.00;;
67997;SDS011;54773;53.388;-1.504;2023-06-24T03:23:30;4.57;;;2.33;;
67997;SDS011;54773;53.388;-1.504;2023-06-24T03:26:14;6.50;;;2.28;;
67997;SDS011;54773;53.388;-1.504;2023-06-24T03:28:58;3.78;;;1.90;;
67997;SDS011;54773;53.388;-1.504;2023-06-24T03:31:42;6.93;;;2.20;;
67997;SDS011;54773;53.388;-1.504;2023-06-24T03:34:27;4.38;;;1.90;;
67997;SDS011;54773;53.388;-1.504;2023-06-24T03:37:11;6.30;;;2.50;;
67997;SDS011;54773;53.388;-1.504;2023-06-24T03:39:55;4.32;;;2.00;;
67997;SDS011;54773;53.388;-1.504;2023-06-24T03:42:40;5.63;;;2.35;;
67997;SDS011;54773;53.388;-1.504;2023-06-24T03:45:23;5.97;;;2.72;;
67997;SDS011;54773;53.388;-1.504;2023-06-24T03:48:07;4.45;;;2.13;;
67997;SDS011;54773;53.388;-1.504;2023-06-24T03:50:51;5.50;;;2.30;;
67997;SDS011;54773;53.388;-1.504;2023-06-24T03:53:35;5.00;;;2.25;;
67997;SDS011;54773;53.388;-1.504;2023-06-24T03:56:19;5.83;;;2.23;;
67997;SDS011;54773;53.388;-1.504;2023-06-24T03:59:03;6.65;;;2.42;;
67997;SDS011;54773;53.388;-1.504;2023-06-24T04:01:47;4.40;;;2.33;;
67997;SDS011;54773;53.388;-1.504;2023-06-24T04:04:31;4.85;;;2.50;;
67997;SDS011;54773;53.388;-1.504;2023-06-24T04:07:15;7.75;;;2.60;;
67997;SDS011;54773;53.388;-1.504;2023-06-24T04:09:59;5.55;;;2.75;;
67997;SDS011;54773;53.388;-1.504;2023-06-24T04:12:42;5.40;;;2.38;;
67997;SDS011;54773;53.388;-1.504;2023-06-24T04:15:27;4.88;;;2.67;;
67997;SDS011;54773;53.388;-1.504;2023-06-24T04:18:10;5.03;;;2.87;;
67997;SDS011;54773;53.388;-1.504;2023-06-24T04:20:57;5.75;;;3.25;;
67997;SDS011;54773;53.388;-1.504;2023-06-24T04:23:41;5.85;;;3.10;;
67997;SDS011;54773;53.388;-1.504;2023-06-24T04:26:26;6.45;;;2.83;;
67997;SDS011;54773;53.388;-1.504;2023-06-24T04:29:10;5.47;;;2.90;;
67997;SDS011;54773;53.388;-1.504;2023-06-24T04:31:54;7.80;;;3.00;;
67997;SDS011;54773;53.388;-1.504;2023-06-24T04:34:38;5.05;;;2.58;;
67997;SDS011;54773;53.388;-1.504;2023-06-24T04:37:24;4.18;;;2.50;;
67997;SDS011;54773;53.388;-1.504;2023-06-24T04:40:08;6.63;;;2.83;;
67997;SDS011;54773;53.388;-1.504;2023-06-24T04:42:53;4.57;;;2.58;;
67997;SDS011;54773;53.388;-1.504;2023-06-24T04:45:36;6.32;;;2.92;;
67997;SDS011;54773;53.388;-1.504;2023-06-24T04:48:22;6.07;;;2.60;;
67997;SDS011;54773;53.388;-1.504;2023-06-24T04:51:08;7.32;;;2.75;;
67997;SDS011;54773;53.388;-1.504;2023-06-24T04:53:52;4.80;;;2.78;;
67997;SDS011;54773;53.388;-1.504;2023-06-24T04:56:36;5.38;;;2.50;;
67997;SDS011;54773;53.388;-1.504;2023-06-24T04:59:20;4.70;;;2.50;;
67997;SDS011;54773;53.388;-1.504;2023-06-24T05:02:05;5.18;;;2.17;;
67997;SDS011;54773;53.388;-1.504;2023-06-24T05:04:49;5.15;;;2.50;;
67997;SDS011;54773;53.388;-1.504;2023-06-24T05:07:34;5.28;;;2.22;;
67997;SDS011;54773;53.388;-1.504;2023-06-24T05:10:18;5.45;;;2.42;;
67997;SDS011;54773;53.388;-1.504;2023-06-24T05:13:02;4.75;;;2.40;;
67997;SDS011;54773;53.388;-1.504;2023-06-24T05:15:46;4.72;;;2.47;;
67997;SDS011;54773;53.388;-1.504;2023-06-24T05:18:30;4.97;;;2.15;;
67997;SDS011;54773;53.388;-1.504;2023-06-24T05:21:15;6.53;;;2.30;;
67997;SDS011;54773;53.388;-1.504;2023-06-24T05:23:58;5.57;;;2.50;;
67997;SDS011;54773;53.388;-1.504;2023-06-24T05:26:44;5.65;;;2.17;;
67997;SDS011;54773;53.388;-1.504;2023-06-24T05:29:29;4.00;;;2.40;;
67997;SDS011;54773;53.388;-1.504;2023-06-24T05:32:13;3.88;;;2.28;;
67997;SDS011;54773;53.388;-1.504;2023-06-24T05:34:57;5.50;;;2.17;;
67997;SDS011;54773;53.388;-1.504;2023-06-24T05:37:41;5.75;;;2.47;;
67997;SDS011;54773;53.388;-1.504;2023-06-24T05:40:25;4.18;;;2.20;;
67997;SDS011;54773;53.388;-1.504;2023-06-24T05:43:09;5.15;;;2.60;;
67997;SDS011;54773;53.388;-1.504;2023-06-24T05:45:56;6.50;;;2.55;;
67997;SDS011;54773;53.388;-1.504;2023-06-24T05:48:40;5.03;;;2.28;;
67997;SDS011;54773;53.388;-1.504;2023-06-24T05:51:25;6.80;;;2.35;;
67997;SDS011;54773;53.388;-1.504;2023-06-24T05:54:09;5.28;;;2.70;;
67997;SDS011;54773;53.388;-1.504;2023-06-24T05:56:53;4.97;;;2.67;;
67997;SDS011;54773;53.388;-1.504;2023-06-24T05:59:37;6.47;;;2.72;;
67997;SDS011;54773;53.388;-1.504;2023-06-24T06:02:21;3.72;;;2.42;;
67997;SDS011;54773;53.388;-1.504;2023-06-24T06:05:05;5.30;;;3.00;;
67997;SDS011;54773;53.388;-1.504;2023-06-24T06:07:49;4.72;;;2.70;;
67997;SDS011;54773;53.388;-1.504;2023-06-24T06:10:33;5.72;;;2.72;;
67997;SDS011;54773;53.388;-1.504;2023-06-24T06:13:23;6.13;;;2.45;;
67997;SDS011;54773;53.388;-1.504;2023-06-24T06:16:17;4.55;;;2.65;;
67997;SDS011;54773;53.388;-1.504;2023-06-24T06:19:02;7.38;;;2.50;;
67997;SDS011;54773;53.388;-1.504;2023-06-24T06:21:46;5.13;;;2.80;;
67997;SDS011;54773;53.388;-1.504;2023-06-24T06:24:30;6.25;;;2.90;;
67997;SDS011;54773;53.388;-1.504;2023-06-24T06:27:17;4.88;;;2.85;;
67997;SDS011;54773;53.388;-1.504;2023-06-24T06:30:04;4.72;;;2.55;;
67997;SDS011;54773;53.388;-1.504;2023-06-24T06:32:52;4.65;;;2.92;;
67997;SDS011;54773;53.388;-1.504;2023-06-24T06:35:36;6.78;;;3.20;;
67997;SDS011;54773;53.388;-1.504;2023-06-24T06:38:33;6.18;;;3.03;;
67997;SDS011;54773;53.388;-1.504;2023-06-24T06:41:17;5.55;;;2.95;;
67997;SDS011;54773;53.388;-1.504;2023-06-24T06:44:08;5.75;;;2.63;;
67997;SDS011;54773;53.388;-1.504;2023-06-24T06:46:52;4.30;;;2.65;;
67997;SDS011;54773;53.388;-1.504;2023-06-24T06:49:39;5.55;;;2.70;;
67997;SDS011;54773;53.388;-1.504;2023-06-24T06:52:26;5.55;;;2.90;;
67997;SDS011;54773;53.388;-1.504;2023-06-24T06:55:11;4.70;;;2.83;;
67997;SDS011;54773;53.388;-1.504;2023-06-24T06:57:55;5.30;;;2.58;;
67997;SDS011;54773;53.388;-1.504;2023-06-24T07:00:39;6.40;;;3.15;;
67997;SDS011;54773;53.388;-1.504;2023-06-24T07:06:09;5.10;;;2.70;;
67997;SDS011;54773;53.388;-1.504;2023-06-24T07:08:53;7.80;;;2.78;;
67997;SDS011;54773;53.388;-1.504;2023-06-24T07:11:37;5.20;;;2.95;;
67997;SDS011;54773;53.388;-1.504;2023-06-24T07:14:21;5.18;;;2.70;;
67997;SDS011;54773;53.388;-1.504;2023-06-24T07:17:05;5.57;;;2.67;;
67997;SDS011;54773;53.388;-1.504;2023-06-24T07:19:49;5.43;;;2.80;;
67997;SDS011;54773;53.388;-1.504;2023-06-24T07:22:32;6.18;;;2.88;;
67997;SDS011;54773;53.388;-1.504;2023-06-24T07:25:16;8.63;;;2.95;;
67997;SDS011;54773;53.388;-1.504;2023-06-24T07:28:03;5.32;;;2.63;;
67997;SDS011;54773;53.388;-1.504;2023-06-24T07:30:48;6.00;;;2.58;;
67997;SDS011;54773;53.388;-1.504;2023-06-24T07:33:32;4.43;;;2.60;;
67997;SDS011;54773;53.388;-1.504;2023-06-24T07:36:17;6.55;;;2.70;;
67997;SDS011;54773;53.388;-1.504;2023-06-24T07:39:02;6.15;;;2.83;;
67997;SDS011;54773;53.388;-1.504;2023-06-24T07:41:47;5.78;;;2.50;;
67997;SDS011;54773;53.388;-1.504;2023-06-24T07:44:31;5.18;;;2.22;;
67997;SDS011;54773;53.388;-1.504;2023-06-24T07:47:16;5.65;;;2.72;;
67997;SDS011;54773;53.388;-1.504;2023-06-24T07:50:00;4.70;;;2.88;;
67997;SDS011;54773;53.388;-1.504;2023-06-24T07:52:48;4.53;;;2.15;;
67997;SDS011;54773;53.388;-1.504;2023-06-24T07:55:32;4.55;;;2.22;;
67997;SDS011;54773;53.388;-1.504;2023-06-24T07:58:15;7.55;;;2.67;;
67997;SDS011;54773;53.388;-1.504;2023-06-24T08:01:01;3.70;;;2.20;;
67997;SDS011;54773;53.388;-1.504;2023-06-24T08:03:44;3.90;;;2.42;;
67997;SDS011;54773;53.388;-1.504;2023-06-24T08:06:28;3.97;;;2.30;;
67997;SDS011;54773;53.388;-1.504;2023-06-24T08:09:16;5.05;;;2.30;;
67997;SDS011;54773;53.388;-1.504;2023-06-24T08:12:00;4.70;;;2.13;;
67997;SDS011;54773;53.388;-1.504;2023-06-24T08:17:29;5.68;;;2.22;;
67997;SDS011;54773;53.388;-1.504;2023-06-24T08:20:13;3.88;;;1.77;;
67997;SDS011;54773;53.388;-1.504;2023-06-24T08:22:57;3.55;;;1.77;;
67997;SDS011;54773;53.388;-1.504;2023-06-24T08:25:41;4.32;;;1.90;;
67997;SDS011;54773;53.388;-1.504;2023-06-24T08:28:28;3.20;;;1.77;;
67997;SDS011;54773;53.388;-1.504;2023-06-24T08:31:12;3.42;;;2.00;;
67997;SDS011;54773;53.388;-1.504;2023-06-24T08:33:58;4.55;;;1.95;;
67997;SDS011;54773;53.388;-1.504;2023-06-24T08:36:43;3.38;;;1.75;;
67997;SDS011;54773;53.388;-1.504;2023-06-24T08:39:27;4.03;;;1.90;;
67997;SDS011;54773;53.388;-1.504;2023-06-24T08:42:11;4.43;;;2.05;;
67997;SDS011;54773;53.388;-1.504;2023-06-24T08:44:55;3.78;;;1.95;;
67997;SDS011;54773;53.388;-1.504;2023-06-24T08:47:39;3.92;;;1.85;;
67997;SDS011;54773;53.388;-1.504;2023-06-24T08:50:24;3.88;;;1.80;;
67997;SDS011;54773;53.388;-1.504;2023-06-24T08:53:11;4.30;;;2.08;;
67997;SDS011;54773;53.388;-1.504;2023-06-24T08:55:55;4.00;;;2.10;;
67997;SDS011;54773;53.388;-1.504;2023-06-24T08:58:40;3.90;;;2.05;;
67997;SDS011;54773;53.388;-1.504;2023-06-24T09:04:08;3.65;;;2.00;;
67997;SDS011;54773;53.388;-1.504;2023-06-24T09:06:52;4.85;;;2.10;;
67997;SDS011;54773;53.388;-1.504;2023-06-24T09:09:42;4.97;;;2.17;;
67997;SDS011;54773;53.388;-1.504;2023-06-24T09:12:28;3.78;;;1.77;;
67997;SDS011;54773;53.388;-1.504;2023-06-24T09:15:15;4.65;;;1.98;;
67997;SDS011;54773;53.388;-1.504;2023-06-24T09:20:50;3.72;;;1.80;;
67997;SDS011;54773;53.388;-1.504;2023-06-24T09:23:37;3.67;;;1.90;;
67997;SDS011;54773;53.388;-1.504;2023-06-24T09:26:23;3.70;;;1.85;;
67997;SDS011;54773;53.388;-1.504;2023-06-24T09:29:07;3.58;;;1.77;;
67997;SDS011;54773;53.388;-1.504;2023-06-24T09:34:36;3.67;;;1.70;;
67997;SDS011;54773;53.388;-1.504;2023-06-24T09:37:23;3.40;;;1.88;;
67997;SDS011;54773;53.388;-1.504;2023-06-24T09:40:08;4.40;;;1.60;;
67997;SDS011;54773;53.388;-1.504;2023-06-24T09:42:54;3.47;;;1.80;;
67997;SDS011;54773;53.388;-1.504;2023-06-24T09:45:39;3.20;;;1.80;;
67997;SDS011;54773;53.388;-1.504;2023-06-24T09:48:24;3.97;;;1.70;;
67997;SDS011;54773;53.388;-1.504;2023-06-24T09:51:11;3.70;;;1.85;;
67997;SDS011;54773;53.388;-1.504;2023-06-24T09:56:50;4.30;;;1.60;;
67997;SDS011;54773;53.388;-1.504;2023-06-24T09:59:36;3.10;;;1.75;;
67997;SDS011;54773;53.388;-1.504;2023-06-24T10:02:20;2.95;;;1.60;;
67997;SDS011;54773;53.388;-1.504;2023-06-24T10:07:52;4.07;;;1.70;;
67997;SDS011;54773;53.388;-1.504;2023-06-24T10:10:35;3.13;;;1.40;;
67997;SDS011;54773;53.388;-1.504;2023-06-24T10:13:20;4.90;;;1.60;;
67997;SDS011;54773;53.388;-1.504;2023-06-24T10:18:48;3.25;;;1.70;;
67997;SDS011;54773;53.388;-1.504;2023-06-24T10:24:41;3.35;;;1.50;;
67997;SDS011;54773;53.388;-1.504;2023-06-24T10:30:18;4.53;;;1.58;;
67997;SDS011;54773;53.388;-1.504;2023-06-24T10:33:11;3.45;;;1.80;;
67997;SDS011;54773;53.388;-1.504;2023-06-24T10:35:55;3.15;;;1.67;;
67997;SDS011;54773;53.388;-1.504;2023-06-24T10:38:39;3.25;;;1.42;;
67997;SDS011;54773;53.388;-1.504;2023-06-24T10:41:23;4.55;;;1.60;;
67997;SDS011;54773;53.388;-1.504;2023-06-24T10:44:15;2.92;;;1.40;;
67997;SDS011;54773;53.388;-1.504;2023-06-24T10:46:59;3.38;;;1.48;;
67997;SDS011;54773;53.388;-1.504;2023-06-24T10:49:43;2.90;;;1.30;;
67997;SDS011;54773;53.388;-1.504;2023-06-24T10:52:27;3.30;;;1.42;;
67997;SDS011;54773;53.388;-1.504;2023-06-24T10:55:15;4.47;;;1.42;;
67997;SDS011;54773;53.388;-1.504;2023-06-24T10:58:10;4.13;;;1.40;;
67997;SDS011;54773;53.388;-1.504;2023-06-24T11:01:05;3.80;;;1.52;;
67997;SDS011;54773;53.388;-1.504;2023-06-24T11:03:50;3.95;;;1.55;;
67997;SDS011;54773;53.388;-1.504;2023-06-24T11:06:34;4.32;;;1.58;;
67997;SDS011;54773;53.388;-1.504;2023-06-24T11:09:19;2.33;;;1.17;;
67997;SDS011;54773;53.388;-1.504;2023-06-24T11:12:03;4.15;;;1.50;;
67997;SDS011;54773;53.388;-1.504;2023-06-24T11:14:47;4.50;;;1.58;;
67997;SDS011;54773;53.388;-1.504;2023-06-24T11:17:32;4.78;;;1.30;;
67997;SDS011;54773;53.388;-1.504;2023-06-24T11:20:16;3.50;;;1.27;;
67997;SDS011;54773;53.388;-1.504;2023-06-24T11:23:00;2.95;;;1.05;;
67997;SDS011;54773;53.388;-1.504;2023-06-24T11:25:44;2.53;;;1.15;;
67997;SDS011;54773;53.388;-1.504;2023-06-24T11:28:30;2.38;;;1.20;;
67997;SDS011;54773;53.388;-1.504;2023-06-24T11:31:15;2.55;;;1.13;;
67997;SDS011;54773;53.388;-1.504;2023-06-24T11:33:59;3.47;;;1.15;;
67997;SDS011;54773;53.388;-1.504;2023-06-24T11:39:28;2.40;;;1.10;;
67997;SDS011;54773;53.388;-1.504;2023-06-24T11:42:13;3.17;;;1.15;;
67997;SDS011;54773;53.388;-1.504;2023-06-24T11:45:01;2.63;;;1.00;;
67997;SDS011;54773;53.388;-1.504;2023-06-24T11:47:46;3.10;;;1.00;;
67997;SDS011;54773;53.388;-1.504;2023-06-24T11:50:30;2.78;;;1.02;;
67997;SDS011;54773;53.388;-1.504;2023-06-24T11:53:14;1.92;;;0.93;;
67997;SDS011;54773;53.388;-1.504;2023-06-24T11:55:58;3.10;;;1.00;;
67997;SDS011;54773;53.388;-1.504;2023-06-24T11:58:42;2.60;;;1.10;;
67997;SDS011;54773;53.388;-1.504;2023-06-24T12:04:29;3.47;;;1.20;;
67997;SDS011;54773;53.388;-1.504;2023-06-24T12:07:14;2.97;;;1.20;;
67997;SDS011;54773;53.388;-1.504;2023-06-24T12:09:58;3.38;;;1.10;;
67997;SDS011;54773;53.388;-1.504;2023-06-24T12:15:27;1.92;;;0.90;;
67997;SDS011;54773;53.388;-1.504;2023-06-24T12:18:12;2.13;;;0.90;;
67997;SDS011;54773;53.388;-1.504;2023-06-24T12:23:39;2.20;;;1.00;;
67997;SDS011;54773;53.388;-1.504;2023-06-24T12:26:26;3.50;;;1.20;;
67997;SDS011;54773;53.388;-1.504;2023-06-24T12:29:10;2.35;;;0.93;;
67997;SDS011;54773;53.388;-1.504;2023-06-24T12:31:54;2.80;;;1.10;;
67997;SDS011;54773;53.388;-1.504;2023-06-24T12:34:38;3.17;;;1.00;;
67997;SDS011;54773;53.388;-1.504;2023-06-24T12:37:22;3.28;;;1.30;;
67997;SDS011;54773;53.388;-1.504;2023-06-24T12:42:51;3.50;;;1.10;;
67997;SDS011;54773;53.388;-1.504;2023-06-24T12:45:35;2.75;;;0.80;;
67997;SDS011;54773;53.388;-1.504;2023-06-24T12:51:10;2.28;;;0.82;;
67997;SDS011;54773;53.388;-1.504;2023-06-24T12:53:54;2.97;;;1.20;;
67997;SDS011;54773;53.388;-1.504;2023-06-24T12:56:38;1.92;;;0.88;;
67997;SDS011;54773;53.388;-1.504;2023-06-24T12:59:22;3.40;;;1.15;;
67997;SDS011;54773;53.388;-1.504;2023-06-24T13:04:51;2.63;;;1.05;;
67997;SDS011;54773;53.388;-1.504;2023-06-24T13:07:35;4.13;;;1.10;;
67997;SDS011;54773;53.388;-1.504;2023-06-24T13:10:20;2.50;;;1.00;;
67997;SDS011;54773;53.388;-1.504;2023-06-24T13:13:04;2.80;;;1.00;;
67997;SDS011;54773;53.388;-1.504;2023-06-24T13:15:48;3.83;;;1.40;;
67997;SDS011;54773;53.388;-1.504;2023-06-24T13:18:32;2.00;;;0.90;;
67997;SDS011;54773;53.388;-1.504;2023-06-24T13:21:16;3.38;;;1.20;;
67997;SDS011;54773;53.388;-1.504;2023-06-24T13:24:00;2.80;;;1.08;;
67997;SDS011;54773;53.388;-1.504;2023-06-24T13:26:44;3.92;;;1.38;;
67997;SDS011;54773;53.388;-1.504;2023-06-24T13:29:28;2.92;;;1.17;;
67997;SDS011;54773;53.388;-1.504;2023-06-24T13:32:15;3.33;;;1.20;;
67997;SDS011;54773;53.388;-1.504;2023-06-24T13:34:59;3.83;;;1.58;;
67997;SDS011;54773;53.388;-1.504;2023-06-24T13:37:43;4.38;;;2.30;;
67997;SDS011;54773;53.388;-1.504;2023-06-24T13:40:28;2.72;;;1.10;;
67997;SDS011;54773;53.388;-1.504;2023-06-24T13:43:13;8.40;;;4.75;;
67997;SDS011;54773;53.388;-1.504;2023-06-24T13:45:57;4.28;;;1.27;;
67997;SDS011;54773;53.388;-1.504;2023-06-24T13:48:41;3.08;;;1.20;;
67997;SDS011;54773;53.388;-1.504;2023-06-24T13:51:26;2.80;;;1.40;;
67997;SDS011;54773;53.388;-1.504;2023-06-24T13:54:10;2.90;;;1.30;;
67997;SDS011;54773;53.388;-1.504;2023-06-24T13:56:54;4.20;;;1.80;;
67997;SDS011;54773;53.388;-1.504;2023-06-24T13:59:38;4.47;;;1.60;;
67997;SDS011;54773;53.388;-1.504;2023-06-24T14:02:22;1.98;;;0.93;;
67997;SDS011;54773;53.388;-1.504;2023-06-24T14:05:06;3.88;;;1.33;;
67997;SDS011;54773;53.388;-1.504;2023-06-24T14:07:50;4.05;;;1.98;;
67997;SDS011;54773;53.388;-1.504;2023-06-24T14:10:34;2.85;;;1.17;;
67997;SDS011;54773;53.388;-1.504;2023-06-24T14:13:19;3.22;;;1.52;;
67997;SDS011;54773;53.388;-1.504;2023-06-24T14:16:03;4.53;;;2.10;;
67997;SDS011;54773;53.388;-1.504;2023-06-24T14:18:48;6.07;;;2.55;;
67997;SDS011;54773;53.388;-1.504;2023-06-24T14:21:32;2.15;;;1.02;;
67997;SDS011;54773;53.388;-1.504;2023-06-24T14:24:17;3.67;;;1.70;;
67997;SDS011;54773;53.388;-1.504;2023-06-24T14:27:01;3.45;;;1.15;;
67997;SDS011;54773;53.388;-1.504;2023-06-24T14:29:44;3.58;;;1.40;;
67997;SDS011;54773;53.388;-1.504;2023-06-24T14:32:28;3.50;;;1.33;;
67997;SDS011;54773;53.388;-1.504;2023-06-24T14:35:12;3.30;;;1.30;;
67997;SDS011;54773;53.388;-1.504;2023-06-24T14:37:56;3.20;;;1.63;;
67997;SDS011;54773;53.388;-1.504;2023-06-24T14:40:40;2.95;;;1.30;;
67997;SDS011;54773;53.388;-1.504;2023-06-24T14:43:24;3.08;;;1.38;;
67997;SDS011;54773;53.388;-1.504;2023-06-24T14:46:08;3.25;;;1.33;;
67997;SDS011;54773;53.388;-1.504;2023-06-24T14:48:52;3.97;;;1.52;;
67997;SDS011;54773;53.388;-1.504;2023-06-24T14:51:36;3.42;;;1.45;;
67997;SDS011;54773;53.388;-1.504;2023-06-24T14:54:20;4.75;;;1.60;;
67997;SDS011;54773;53.388;-1.504;2023-06-24T14:57:04;3.13;;;1.17;;
67997;SDS011;54773;53.388;-1.504;2023-06-24T14:59:48;6.45;;;1.70;;
67997;SDS011;54773;53.388;-1.504;2023-06-24T15:05:16;3.45;;;1.50;;
67997;SDS011;54773;53.388;-1.504;2023-06-24T15:08:00;6.80;;;1.88;;
67997;SDS011;54773;53.388;-1.504;2023-06-24T15:10:44;3.78;;;1.70;;
67997;SDS011;54773;53.388;-1.504;2023-06-24T15:13:28;3.95;;;1.90;;
67997;SDS011;54773;53.388;-1.504;2023-06-24T15:16:12;5.22;;;1.48;;
67997;SDS011;54773;53.388;-1.504;2023-06-24T15:18:55;5.60;;;1.85;;
67997;SDS011;54773;53.388;-1.504;2023-06-24T15:21:39;3.38;;;1.60;;
67997;SDS011;54773;53.388;-1.504;2023-06-24T15:24:23;3.40;;;1.45;;
67997;SDS011;54773;53.388;-1.504;2023-06-24T15:27:07;3.38;;;1.50;;
67997;SDS011;54773;53.388;-1.504;2023-06-24T15:29:56;3.72;;;2.00;;
67997;SDS011;54773;53.388;-1.504;2023-06-24T15:32:40;3.55;;;1.65;;
67997;SDS011;54773;53.388;-1.504;2023-06-24T15:35:25;4.55;;;1.70;;
67997;SDS011;54773;53.388;-1.504;2023-06-24T15:38:09;3.10;;;1.50;;
67997;SDS011;54773;53.388;-1.504;2023-06-24T15:40:53;3.75;;;1.65;;
67997;SDS011;54773;53.388;-1.504;2023-06-24T15:43:37;3.30;;;1.40;;
67997;SDS011;54773;53.388;-1.504;2023-06-24T15:46:21;4.32;;;1.55;;
67997;SDS011;54773;53.388;-1.504;2023-06-24T15:49:06;3.13;;;1.40;;
67997;SDS011;54773;53.388;-1.504;2023-06-24T15:51:50;3.42;;;1.77;;
67997;SDS011;54773;53.388;-1.504;2023-06-24T15:54:34;6.90;;;1.70;;
67997;SDS011;54773;53.388;-1.504;2023-06-24T15:57:21;3.30;;;1.55;;
67997;SDS011;54773;53.388;-1.504;2023-06-24T16:00:05;4.60;;;2.00;;
67997;SDS011;54773;53.388;-1.504;2023-06-24T16:02:49;3.33;;;1.70;;
67997;SDS011;54773;53.388;-1.504;2023-06-24T16:05:34;3.60;;;1.42;;
67997;SDS011;54773;53.388;-1.504;2023-06-24T16:11:02;7.73;;;5.27;;
67997;SDS011;54773;53.388;-1.504;2023-06-24T16:13:46;10.27;;;5.97;;
67997;SDS011;54773;53.388;-1.504;2023-06-24T16:16:30;7.63;;;3.38;;
67997;SDS011;54773;53.388;-1.504;2023-06-24T16:19:13;3.50;;;1.77;;
67997;SDS011;54773;53.388;-1.504;2023-06-24T16:21:57;3.63;;;1.75;;
67997;SDS011;54773;53.388;-1.504;2023-06-24T16:24:41;4.40;;;1.92;;
67997;SDS011;54773;53.388;-1.504;2023-06-24T16:30:09;4.38;;;1.70;;
67997;SDS011;54773;53.388;-1.504;2023-06-24T16:32:54;4.38;;;1.95;;
67997;SDS011;54773;53.388;-1.504;2023-06-24T16:35:38;3.20;;;1.70;;
67997;SDS011;54773;53.388;-1.504;2023-06-24T16:41:06;6.30;;;2.33;;
67997;SDS011;54773;53.388;-1.504;2023-06-24T16:43:50;3.85;;;2.13;;
67997;SDS011;54773;53.388;-1.504;2023-06-24T16:46:34;14.32;;;4.75;;
67997;SDS011;54773;53.388;-1.504;2023-06-24T16:49:18;4.20;;;1.67;;
67997;SDS011;54773;53.388;-1.504;2023-06-24T16:52:02;5.45;;;2.17;;
67997;SDS011;54773;53.388;-1.504;2023-06-24T16:54:46;4.15;;;2.40;;
67997;SDS011;54773;53.388;-1.504;2023-06-24T16:57:30;4.80;;;2.53;;
67997;SDS011;54773;53.388;-1.504;2023-06-24T17:00:15;5.97;;;2.17;;
67997;SDS011;54773;53.388;-1.504;2023-06-24T17:02:59;4.25;;;2.60;;
67997;SDS011;54773;53.388;-1.504;2023-06-24T17:05:43;5.22;;;2.50;;
67997;SDS011;54773;53.388;-1.504;2023-06-24T17:08:27;5.70;;;2.58;;
67997;SDS011;54773;53.388;-1.504;2023-06-24T17:11:11;6.10;;;3.17;;
67997;SDS011;54773;53.388;-1.504;2023-06-24T17:13:55;6.65;;;3.50;;
67997;SDS011;54773;53.388;-1.504;2023-06-24T17:16:39;5.38;;;2.50;;
67997;SDS011;54773;53.388;-1.504;2023-06-24T17:19:26;4.10;;;2.30;;
67997;SDS011;54773;53.388;-1.504;2023-06-24T17:22:10;4.38;;;2.45;;
67997;SDS011;54773;53.388;-1.504;2023-06-24T17:24:54;5.20;;;2.85;;
67997;SDS011;54773;53.388;-1.504;2023-06-24T17:27:38;5.38;;;2.20;;